createdAt,value
2023-03-29T00:01:34.780Z,95564.00
2023-03-29T00:05:23.293Z,95573.00
2023-03-29T00:09:22.290Z,95601.00
2023-03-29T00:13:22.232Z,95612.00
2023-03-29T00:17:22.170Z,95612.00
2023-03-29T00:21:22.170Z,95611.00
2023-03-29T00:25:22.287Z,95607.00
2023-03-29T00:29:22.365Z,95626.00
2023-03-29T00:33:22.482Z,95632.00
2023-03-29T00:37:22.554Z,95634.00
2023-03-29T00:41:22.689Z,95642.00
2023-03-29T00:45:22.822Z,95648.00
2023-03-29T00:49:22.893Z,95660.00
2023-03-29T00:53:22.979Z,95648.00
2023-03-29T00:57:23.735Z,95642.00
2023-03-29T01:01:23.256Z,95668.00
2023-03-29T01:05:23.325Z,95673.00
2023-03-29T01:09:23.420Z,95677.00
2023-03-29T01:13:23.521Z,95664.00
2023-03-29T01:17:23.743Z,95668.00
2023-03-29T01:21:23.784Z,95650.00
2023-03-29T01:25:23.851Z,95644.00
2023-03-29T01:29:23.981Z,95650.00
2023-03-29T01:33:24.117Z,95646.00
2023-03-29T01:37:24.196Z,95658.00
2023-03-29T01:41:24.383Z,95650.00
2023-03-29T01:45:24.438Z,95638.00
2023-03-29T01:49:24.576Z,95634.00
2023-03-29T01:53:24.680Z,95632.00
2023-03-29T01:57:24.930Z,95634.00
2023-03-29T02:01:24.946Z,95628.00
2023-03-29T02:05:25.034Z,95626.00
2023-03-29T02:09:25.166Z,95618.00
2023-03-29T02:13:25.256Z,95620.00
2023-03-29T02:17:25.427Z,95609.00
2023-03-29T02:21:25.516Z,95603.00
2023-03-29T02:25:25.626Z,95595.00
2023-03-29T02:29:25.838Z,95597.00
2023-03-29T02:33:25.865Z,95599.00
2023-03-29T02:37:25.987Z,95607.00
2023-03-29T02:41:26.095Z,95607.00
2023-03-29T02:45:26.226Z,95601.00
2023-03-29T02:49:26.343Z,95597.00
2023-03-29T02:53:26.444Z,95591.00
2023-03-29T02:57:26.894Z,95575.00
2023-03-29T03:01:26.732Z,95577.00
2023-03-29T03:05:26.810Z,95579.00
2023-03-29T03:09:26.944Z,95573.00
2023-03-29T03:13:27.073Z,95573.00
2023-03-29T03:17:27.245Z,95575.00
2023-03-29T03:21:27.293Z,95579.00
2023-03-29T03:25:27.396Z,95581.00
2023-03-29T03:29:27.550Z,95591.00
2023-03-29T03:33:27.682Z,95601.00
2023-03-29T03:37:27.785Z,95607.00
2023-03-29T03:41:27.923Z,95612.00
2023-03-29T03:45:28.063Z,95622.00
2023-03-29T03:49:28.169Z,95614.00
2023-03-29T03:53:28.295Z,95603.00
2023-03-29T03:57:28.443Z,95595.00
2023-03-29T04:01:28.562Z,95595.00
2023-03-29T04:05:28.664Z,95591.00
2023-03-29T04:09:28.794Z,95589.00
2023-03-29T04:13:28.923Z,95581.00
2023-03-29T04:17:29.100Z,95567.00
2023-03-29T04:21:29.223Z,95556.00
2023-03-29T04:25:29.329Z,95548.00
2023-03-29T04:29:29.491Z,95554.00
2023-03-29T04:33:29.618Z,95560.00
2023-03-29T04:37:29.786Z,95540.00
2023-03-29T04:41:29.893Z,95524.00
2023-03-29T04:45:30.088Z,95524.00
2023-03-29T04:49:30.198Z,95524.00
2023-03-29T04:53:30.351Z,95524.00
2023-03-29T04:57:30.517Z,95522.00
2023-03-29T05:01:30.697Z,95517.00
2023-03-29T05:05:30.767Z,95522.00
2023-03-29T05:09:32.498Z,95507.00
2023-03-29T05:13:30.876Z,95509.00
2023-03-29T05:17:30.919Z,95495.00
2023-03-29T05:21:30.814Z,95497.00
2023-03-29T05:25:30.771Z,95501.00
2023-03-29T05:29:30.747Z,95491.00
2023-03-29T05:33:30.682Z,95499.00
2023-03-29T05:37:30.634Z,95491.00
2023-03-29T05:41:31.106Z,95497.00
2023-03-29T05:45:31.085Z,95497.00
2023-03-29T05:49:30.540Z,95499.00
2023-03-29T05:53:30.562Z,95505.00
2023-03-29T05:57:30.579Z,95511.00
2023-03-29T06:01:30.556Z,95509.00
2023-03-29T06:05:30.420Z,95505.00
2023-03-29T06:09:30.375Z,95509.00
2023-03-29T06:13:30.339Z,95517.00
2023-03-29T06:17:30.313Z,95530.00
2023-03-29T06:21:30.586Z,95517.00
2023-03-29T06:25:30.193Z,95524.00
2023-03-29T06:29:30.200Z,95526.00
2023-03-29T06:33:30.174Z,95530.00
2023-03-29T06:37:30.582Z,95532.00
2023-03-29T06:41:30.102Z,95536.00
2023-03-29T06:45:30.101Z,95544.00
2023-03-29T06:49:30.120Z,95556.00
2023-03-29T06:53:30.317Z,95558.00
2023-03-29T06:57:29.975Z,95554.00
2023-03-29T07:01:29.928Z,95567.00
2023-03-29T07:05:30.128Z,95552.00
2023-03-29T07:09:29.859Z,95548.00
2023-03-29T07:13:30.097Z,95556.00
2023-03-29T07:17:29.798Z,95552.00
2023-03-29T07:21:29.721Z,95558.00
2023-03-29T07:25:29.698Z,95550.00
2023-03-29T07:29:30.105Z,95552.00
2023-03-29T07:33:30.060Z,95548.00
2023-03-29T07:37:30.030Z,95562.00
2023-03-29T07:41:30.623Z,95558.00
2023-03-29T07:45:30.616Z,95550.00
2023-03-29T07:49:30.607Z,95552.00
2023-03-29T07:53:30.173Z,95556.00
2023-03-29T07:57:30.306Z,95556.00
2023-03-29T08:01:30.615Z,95552.00
2023-03-29T08:05:40.632Z,95544.00
2023-03-29T08:09:31.617Z,95546.00
2023-03-29T08:13:30.609Z,95546.00
2023-03-29T08:17:30.642Z,95556.00
2023-03-29T08:21:30.667Z,95558.00
2023-03-29T08:25:30.807Z,95556.00
2023-03-29T08:29:30.849Z,95556.00
2023-03-29T08:33:30.912Z,95556.00
2023-03-29T08:37:31.157Z,95565.00
2023-03-29T08:41:31.161Z,95571.00
2023-03-29T08:45:30.905Z,95579.00
2023-03-29T08:49:31.135Z,95581.00
2023-03-29T08:53:31.168Z,95583.00
2023-03-29T08:57:31.148Z,95577.00
2023-03-29T09:01:31.792Z,95585.00
2023-03-29T09:05:31.421Z,95583.00
2023-03-29T09:09:31.457Z,95579.00
2023-03-29T09:13:31.805Z,95583.00
2023-03-29T09:17:31.437Z,95579.00
2023-03-29T09:21:31.397Z,95575.00
2023-03-29T09:25:36.240Z,95579.00
2023-03-29T09:29:32.659Z,95585.00
2023-03-29T09:33:31.262Z,95581.00
2023-03-29T09:37:31.209Z,95583.00
2023-03-29T09:41:31.726Z,95575.00
2023-03-29T09:45:31.193Z,95575.00
2023-03-29T09:49:31.169Z,95565.00
2023-03-29T09:53:31.148Z,95556.00
2023-03-29T09:57:31.375Z,95564.00
2023-03-29T10:01:31.340Z,95556.00
2023-03-29T10:05:31.289Z,95552.00
2023-03-29T10:09:31.230Z,95538.00
2023-03-29T10:13:31.697Z,95536.00
2023-03-29T10:17:31.178Z,95532.00
2023-03-29T10:21:31.105Z,95528.00
2023-03-29T10:25:31.089Z,95528.00
2023-03-29T10:29:31.231Z,95528.00
2023-03-29T10:33:31.033Z,95530.00
2023-03-29T10:37:31.183Z,95528.00
2023-03-29T10:41:31.219Z,95532.00
2023-03-29T10:45:30.928Z,95526.00
2023-03-29T10:49:30.858Z,95526.00
2023-03-29T10:53:31.049Z,95524.00
2023-03-29T10:57:31.092Z,95524.00
2023-03-29T11:01:31.046Z,95526.00
2023-03-29T11:05:30.975Z,95524.00
2023-03-29T11:09:30.933Z,95524.00
2023-03-29T11:13:30.919Z,95515.00
2023-03-29T11:17:31.268Z,95517.00
2023-03-29T11:21:30.843Z,95505.00
2023-03-29T11:25:30.788Z,95503.00
2023-03-29T11:29:30.757Z,95499.00
2023-03-29T11:33:31.182Z,95505.00
2023-03-29T11:37:30.793Z,95499.00
2023-03-29T11:41:30.766Z,95493.00
2023-03-29T11:45:30.734Z,95495.00
2023-03-29T11:49:30.736Z,95491.00
2023-03-29T11:53:30.693Z,95479.00
2023-03-29T11:57:30.726Z,95475.00
2023-03-29T12:01:30.600Z,95464.00
2023-03-29T12:05:30.569Z,95460.00
2023-03-29T12:09:30.555Z,95450.00
2023-03-29T12:13:30.578Z,95442.00
2023-03-29T12:17:30.552Z,95442.00
2023-03-29T12:21:30.487Z,95432.00
2023-03-29T12:25:30.439Z,95432.00
2023-03-29T12:29:30.412Z,95424.00
2023-03-29T12:33:30.363Z,95418.00
2023-03-29T12:37:30.359Z,95413.00
2023-03-29T12:41:30.306Z,95407.00
2023-03-29T12:45:30.255Z,95411.00
2023-03-29T12:49:30.254Z,95407.00
2023-03-29T12:53:30.209Z,95411.00
2023-03-29T12:57:30.259Z,95407.00
2023-03-29T13:01:30.593Z,95401.00
2023-03-29T13:05:30.705Z,95377.00
2023-03-29T13:09:30.860Z,95387.00
2023-03-29T13:13:31.051Z,95379.00
2023-03-29T13:17:31.303Z,95375.00
2023-03-29T13:21:31.228Z,95389.00
2023-03-29T13:25:31.234Z,95385.00
2023-03-29T13:29:31.182Z,95383.00
2023-03-29T13:33:31.178Z,95393.00
2023-03-29T13:37:31.085Z,95401.00
2023-03-29T13:41:31.083Z,95401.00
2023-03-29T13:45:31.052Z,95405.00
2023-03-29T13:49:30.980Z,95409.00
2023-03-29T13:53:31.008Z,95393.00
2023-03-29T13:57:30.947Z,95383.00
2023-03-29T14:01:30.883Z,95385.00
2023-03-29T14:05:30.851Z,95379.00
2023-03-29T14:09:30.813Z,95377.00
2023-03-29T14:13:30.787Z,95387.00
2023-03-29T14:17:30.782Z,95383.00
2023-03-29T14:21:30.808Z,95381.00
2023-03-29T14:25:30.763Z,95379.00
2023-03-29T14:29:30.827Z,95371.00
2023-03-29T14:33:30.782Z,95371.00
2023-03-29T14:37:30.787Z,95381.00
2023-03-29T14:41:30.773Z,95385.00
2023-03-29T14:45:32.768Z,95387.00
2023-03-29T14:49:30.972Z,95381.00
2023-03-29T14:53:30.927Z,95383.00
2023-03-29T14:57:31.058Z,95387.00
2023-03-29T15:01:30.973Z,95389.00
2023-03-29T15:05:30.925Z,95389.00
2023-03-29T15:09:30.930Z,95391.00
2023-03-29T15:13:30.928Z,95383.00
2023-03-29T15:17:39.415Z,95383.00
2023-03-29T15:21:31.893Z,95366.00
2023-03-29T15:25:30.879Z,95358.00
2023-03-29T15:29:30.863Z,95348.00
2023-03-29T15:33:30.895Z,95346.00
2023-03-29T15:37:30.777Z,95342.00
2023-03-29T15:41:30.728Z,95340.00
2023-03-29T15:45:30.689Z,95346.00
2023-03-29T15:49:30.683Z,95338.00
2023-03-29T15:53:30.654Z,95330.00
2023-03-29T15:57:30.702Z,95324.00
2023-03-29T16:01:30.762Z,95326.00
2023-03-29T16:05:30.663Z,95326.00
2023-03-29T16:09:30.641Z,95324.00
2023-03-29T16:13:30.679Z,95328.00
2023-03-29T16:17:30.679Z,95328.00
2023-03-29T16:21:30.695Z,95323.00
2023-03-29T16:25:30.618Z,95326.00
2023-03-29T16:29:30.621Z,95328.00
2023-03-29T16:33:30.631Z,95317.00
2023-03-29T16:37:30.623Z,95324.00
2023-03-29T16:41:30.638Z,95317.00
2023-03-29T16:45:30.610Z,95309.00
2023-03-29T16:49:30.649Z,95315.00
2023-03-29T16:53:30.655Z,95317.00
2023-03-29T16:57:30.705Z,95315.00
2023-03-29T17:01:30.695Z,95307.00
2023-03-29T17:05:30.748Z,95307.00
2023-03-29T17:09:30.735Z,95309.00
2023-03-29T17:13:30.824Z,95319.00
2023-03-29T17:17:30.895Z,95317.00
2023-03-29T17:21:30.887Z,95311.00
2023-03-29T17:25:30.907Z,95317.00
2023-03-29T17:29:30.944Z,95323.00
2023-03-29T17:33:30.987Z,95315.00
2023-03-29T17:37:31.098Z,95321.00
2023-03-29T17:41:31.398Z,95328.00
2023-03-29T17:45:31.168Z,95328.00
2023-03-29T17:49:31.271Z,95326.00
2023-03-29T17:53:31.325Z,95336.00
2023-03-29T17:57:31.409Z,95340.00
2023-03-29T18:01:31.524Z,95338.00
2023-03-29T18:05:31.568Z,95346.00
2023-03-29T18:09:31.635Z,95348.00
2023-03-29T18:13:31.737Z,95348.00
2023-03-29T18:17:31.843Z,95352.00
2023-03-29T18:21:31.916Z,95344.00
2023-03-29T18:25:32.015Z,95342.00
2023-03-29T18:29:32.141Z,95344.00
2023-03-29T18:33:32.221Z,95342.00
2023-03-29T18:37:32.352Z,95354.00
2023-03-29T18:41:32.460Z,95352.00
2023-03-29T18:45:32.577Z,95356.00
2023-03-29T18:49:32.875Z,95356.00
2023-03-29T18:53:32.800Z,95367.00
2023-03-29T18:57:33.029Z,95379.00
2023-03-29T19:01:33.082Z,95381.00
2023-03-29T19:05:33.217Z,95381.00
2023-03-29T19:09:33.274Z,95389.00
2023-03-29T19:13:33.421Z,95393.00
2023-03-29T19:17:33.600Z,95385.00
2023-03-29T19:21:33.666Z,95405.00
2023-03-29T19:25:33.763Z,95411.00
2023-03-29T19:29:33.897Z,95401.00
2023-03-29T19:33:34.061Z,95407.00
2023-03-29T19:37:34.141Z,95389.00
2023-03-29T19:41:34.280Z,95403.00
2023-03-29T19:45:34.358Z,95418.00
2023-03-29T19:49:34.482Z,95424.00
2023-03-29T19:53:37.147Z,95434.00
2023-03-29T19:57:34.602Z,95432.00
2023-03-29T20:01:34.550Z,95428.00
2023-03-29T20:05:34.508Z,95438.00
2023-03-29T20:09:34.481Z,95450.00
2023-03-29T20:17:34.444Z,95440.00
2023-03-29T20:21:34.361Z,95436.00
2023-03-29T20:25:34.364Z,95440.00
2023-03-29T20:29:34.311Z,95428.00
2023-03-29T20:33:34.238Z,95428.00
2023-03-29T20:37:34.223Z,95422.00
2023-03-29T20:41:34.204Z,95424.00
2023-03-29T20:45:42.949Z,95415.00
2023-03-29T20:49:35.138Z,95415.00
2023-03-29T20:53:34.098Z,95409.00
2023-03-29T20:57:34.126Z,95403.00
2023-03-29T21:01:34.152Z,95403.00
2023-03-29T21:05:34.327Z,95383.00
2023-03-29T21:09:34.447Z,95379.00
2023-03-29T21:13:36.891Z,95373.00
2023-03-29T21:17:34.545Z,95369.00
2023-03-29T21:21:34.528Z,95373.00
2023-03-29T21:25:34.560Z,95371.00
2023-03-29T21:29:34.459Z,95371.00
2023-03-29T21:33:34.405Z,95366.00
2023-03-29T21:37:34.373Z,95367.00
2023-03-29T21:41:34.321Z,95366.00
2023-03-29T21:45:34.319Z,95366.00
2023-03-29T21:49:34.272Z,95360.00
2023-03-29T21:53:34.224Z,95362.00
2023-03-29T21:57:34.181Z,95360.00
2023-03-29T22:01:34.269Z,95358.00
2023-03-29T22:05:34.141Z,95362.00
2023-03-29T22:09:34.110Z,95367.00
2023-03-29T22:13:34.218Z,95367.00
2023-03-29T22:17:34.355Z,95364.00
2023-03-29T22:21:34.490Z,95367.00
2023-03-29T22:25:34.620Z,95364.00
2023-03-29T22:29:34.807Z,95367.00
2023-03-29T22:33:34.977Z,95369.00
2023-03-29T22:37:35.158Z,95371.00
2023-03-29T22:41:35.310Z,95367.00
2023-03-29T22:45:35.436Z,95350.00
2023-03-29T22:49:35.608Z,95354.00
2023-03-29T22:53:35.751Z,95352.00
2023-03-29T22:57:35.885Z,95348.00
2023-03-29T23:01:36.108Z,95350.00
2023-03-29T23:05:36.180Z,95344.00
2023-03-29T23:09:36.323Z,95346.00
2023-03-29T23:13:36.472Z,95348.00
2023-03-29T23:17:36.615Z,95346.00
2023-03-29T23:21:36.808Z,95340.00
2023-03-29T23:25:36.971Z,95340.00
2023-03-29T23:29:37.080Z,95334.00
2023-03-29T23:33:37.273Z,95330.00
2023-03-29T23:37:37.482Z,95330.00
2023-03-29T23:41:37.660Z,95328.00
2023-03-29T23:45:37.847Z,95315.00
2023-03-29T23:49:38.137Z,95311.00
2023-03-29T23:53:38.253Z,95303.00
2023-03-29T23:57:38.430Z,95299.00
